Terminal Aerodrome Forecast
Issued by NWS Billings, MT

Home | Current Version | Previous Version | Text Only | Print | Product List | Glossary On
Versions: 1 2 3 4 5 6 7 8 9 10 11 12 13 14 15 16 17 18 19 20 21 22 23 24 25 26 27 28 29 30 31 32 33 34 35 36
000
FTUS45 KBYZ 232324
TAFMLS
TAF
KMLS 232324Z 2400/2424 07011G20KT P6SM FEW012
     FM240500 06011KT P6SM VCSH BKN070
     FM240800 34010KT 6SM -RA SCT015 BKN030
     FM241000 32008G15KT P6SM VCSH BKN015
     FM241500 32011G19KT P6SM BKN015
     FM242100 VRB06KT P6SM VCSH SCT015 BKN060=

USA.gov is the U.S. government's official web portal to all federal, state and local government web resources and services.